createdAt,value
2019-01-30T00:00:04.056Z,2.5
2019-01-30T00:01:03.524Z,2.5
2019-01-30T00:02:02.960Z,2.5
2019-01-30T00:03:03.506Z,2.5
2019-01-30T00:04:03.575Z,1.1
2019-01-30T00:05:03.779Z,3.6
2019-01-30T00:06:03.317Z,3.6
2019-01-30T00:07:03.321Z,2.5
2019-01-30T00:08:03.676Z,3.6
2019-01-30T00:09:03.536Z,3.6
2019-01-30T00:10:02.981Z,1.1
2019-01-30T00:11:03.149Z,2.5
2019-01-30T00:12:03.593Z,1.1
2019-01-30T00:13:03.230Z,2.5
2019-01-30T00:14:03.550Z,5
2019-01-30T00:15:03.005Z,2.5
2019-01-30T00:16:02.811Z,3.6
2019-01-30T00:17:03.607Z,2.5
2019-01-30T00:18:03.341Z,1.1
2019-01-30T00:19:04.275Z,2.5
2019-01-30T00:20:03.809Z,3.6
2019-01-30T00:21:03.135Z,2.5
2019-01-30T00:22:03.105Z,2.5
2019-01-30T00:23:03.668Z,1.1
2019-01-30T00:24:02.898Z,2.5
2019-01-30T00:25:03.591Z,3.6
2019-01-30T00:26:03.095Z,2.5
2019-01-30T00:27:03.553Z,2.5
2019-01-30T00:28:03.560Z,1.1
2019-01-30T00:29:02.969Z,3.6
2019-01-30T00:30:04.752Z,1.1
2019-01-30T00:31:04.835Z,1.1
2019-01-30T00:32:02.855Z,2.5
2019-01-30T00:33:03.241Z,3.6
2019-01-30T00:34:03.303Z,2.5
2019-01-30T00:35:03.050Z,3.6
2019-01-30T00:36:04.113Z,3.6
2019-01-30T00:37:03.279Z,3.6
2019-01-30T00:38:03.163Z,3.6
2019-01-30T00:39:03.326Z,3.6
2019-01-30T00:40:03.202Z,6.1
2019-01-30T00:41:03.132Z,2.5
2019-01-30T00:42:03.311Z,2.5
2019-01-30T00:43:03.143Z,2.5
2019-01-30T00:44:03.575Z,2.5
2019-01-30T00:45:03.462Z,3.6
2019-01-30T00:46:03.247Z,2.5
2019-01-30T00:47:03.776Z,3.6
2019-01-30T00:48:03.615Z,1.1
2019-01-30T00:49:03.593Z,3.6
2019-01-30T00:50:02.580Z,1.1
2019-01-30T00:51:03.493Z,3.6
2019-01-30T00:52:03.661Z,3.6
2019-01-30T00:53:03.275Z,1.1
2019-01-30T00:54:03.639Z,2.5
2019-01-30T00:55:03.094Z,3.6
2019-01-30T00:56:03.398Z,3.6
2019-01-30T00:57:03.269Z,3.6
2019-01-30T00:58:03.195Z,3.6
2019-01-30T00:59:03.267Z,0
2019-01-30T01:00:14.471Z,1.1
2019-01-30T01:01:03.551Z,1.1
2019-01-30T01:02:03.795Z,1.1
2019-01-30T01:03:03.048Z,1.1
2019-01-30T01:04:03.042Z,1.1
2019-01-30T01:05:03.016Z,1.1
2019-01-30T01:06:03.546Z,1.1
2019-01-30T01:07:03.404Z,5
2019-01-30T01:08:03.749Z,2.5
2019-01-30T01:09:03.690Z,3.6
2019-01-30T01:10:02.869Z,3.6
2019-01-30T01:11:02.945Z,5
2019-01-30T01:12:02.745Z,1.1
2019-01-30T01:13:03.688Z,2.5
2019-01-30T01:14:03.557Z,1.1
2019-01-30T01:15:03.475Z,0
2019-01-30T01:16:03.450Z,5
2019-01-30T01:17:02.960Z,2.5
2019-01-30T01:18:03.727Z,1.1
2019-01-30T01:19:03.538Z,2.5
2019-01-30T01:20:03.631Z,3.6
2019-01-30T01:21:03.078Z,2.5
2019-01-30T01:22:03.316Z,2.5
2019-01-30T01:23:03.248Z,6.1
2019-01-30T01:24:03.133Z,3.6
2019-01-30T01:25:02.908Z,2.5
2019-01-30T01:26:02.737Z,5
2019-01-30T01:27:03.613Z,2.5
2019-01-30T01:28:03.529Z,5
2019-01-30T01:29:02.834Z,2.5
2019-01-30T01:30:02.365Z,5
2019-01-30T01:31:03.675Z,3.6
2019-01-30T01:32:03.692Z,5
2019-01-30T01:33:03.535Z,3.6
2019-01-30T01:34:03.355Z,2.5
2019-01-30T01:35:03.682Z,2.5
2019-01-30T01:36:03.279Z,2.5
2019-01-30T01:37:01.910Z,2.5
2019-01-30T01:38:03.701Z,7.2
2019-01-30T01:39:02.985Z,0
2019-01-30T01:40:03.323Z,5
2019-01-30T01:41:03.333Z,6.1
2019-01-30T01:42:03.653Z,3.6
2019-01-30T01:43:03.846Z,5
2019-01-30T01:44:03.579Z,5
2019-01-30T01:45:03.105Z,2.5
2019-01-30T01:46:02.922Z,2.5
2019-01-30T01:47:03.362Z,3.6
2019-01-30T01:48:03.409Z,2.5
2019-01-30T01:49:03.110Z,1.1
2019-01-30T01:50:03.313Z,3.6
2019-01-30T01:51:03.725Z,5
2019-01-30T01:52:02.888Z,5
2019-01-30T01:53:03.379Z,3.6
2019-01-30T01:54:03.535Z,3.6
2019-01-30T01:55:03.115Z,2.5
2019-01-30T01:56:03.710Z,2.5
2019-01-30T01:57:03.531Z,3.6
2019-01-30T01:58:03.303Z,2.5
2019-01-30T01:59:02.998Z,2.5
2019-01-30T02:00:03.789Z,2.5
2019-01-30T02:01:02.771Z,3.6
2019-01-30T02:02:02.341Z,3.6
2019-01-30T02:03:03.136Z,2.5
2019-01-30T02:04:02.958Z,2.5
2019-01-30T02:05:03.352Z,2.5
2019-01-30T02:06:03.506Z,2.5
2019-01-30T02:07:03.786Z,2.5
2019-01-30T02:08:03.261Z,1.1
2019-01-30T02:09:03.683Z,0
2019-01-30T02:10:03.976Z,1.1
2019-01-30T02:11:02.962Z,1.1
2019-01-30T02:12:03.462Z,1.1
2019-01-30T02:13:03.642Z,0
2019-01-30T02:14:03.336Z,1.1
2019-01-30T02:15:03.569Z,2.5
2019-01-30T02:16:03.503Z,1.1
2019-01-30T02:17:03.552Z,1.1
2019-01-30T02:18:03.411Z,1.1
2019-01-30T02:19:03.492Z,0
2019-01-30T02:20:03.469Z,0
2019-01-30T02:21:03.844Z,3.6
2019-01-30T02:22:02.599Z,0
2019-01-30T02:23:03.715Z,5
2019-01-30T02:24:03.702Z,1.1
2019-01-30T02:25:03.196Z,1.1
2019-01-30T02:26:03.187Z,2.5
2019-01-30T02:27:03.351Z,1.1
2019-01-30T02:28:03.170Z,1.1
2019-01-30T02:29:03.434Z,0
2019-01-30T02:30:03.524Z,0
2019-01-30T02:31:03.460Z,0
2019-01-30T02:32:03.233Z,1.1
2019-01-30T02:33:03.386Z,1.1
2019-01-30T02:34:03.232Z,1.1
2019-01-30T02:35:03.119Z,1.1
2019-01-30T02:36:03.141Z,1.1
2019-01-30T02:37:03.582Z,2.5
2019-01-30T02:38:03.289Z,1.1
2019-01-30T02:39:03.679Z,0
2019-01-30T02:40:03.391Z,2.5
2019-01-30T02:41:03.701Z,2.5
2019-01-30T02:42:03.192Z,0
2019-01-30T02:43:03.141Z,1.1
2019-01-30T02:44:02.880Z,0
2019-01-30T02:45:02.946Z,1.1
2019-01-30T02:46:03.505Z,0
2019-01-30T02:47:03.452Z,0
2019-01-30T02:48:03.540Z,0
2019-01-30T02:49:03.572Z,0
2019-01-30T02:50:02.956Z,0
2019-01-30T02:51:03.251Z,0
2019-01-30T02:52:03.207Z,0
2019-01-30T02:53:02.850Z,0
2019-01-30T02:54:03.523Z,0
2019-01-30T02:55:03.811Z,1.1
2019-01-30T02:56:03.400Z,0
2019-01-30T02:57:03.768Z,0
2019-01-30T02:58:03.238Z,0
2019-01-30T02:59:03.406Z,0
2019-01-30T03:00:03.458Z,0
2019-01-30T03:01:02.487Z,1.1
2019-01-30T03:02:03.658Z,1.1
2019-01-30T03:03:02.732Z,0
2019-01-30T03:04:02.647Z,0
2019-01-30T03:05:03.339Z,0
2019-01-30T03:06:03.515Z,0
2019-01-30T03:07:02.755Z,0
2019-01-30T03:08:02.722Z,0
2019-01-30T03:09:02.777Z,0
2019-01-30T03:10:03.841Z,0
2019-01-30T03:11:03.446Z,0
2019-01-30T03:12:03.058Z,0
2019-01-30T03:13:03.191Z,0
2019-01-30T03:14:03.742Z,0
2019-01-30T03:15:03.172Z,0
2019-01-30T03:16:03.452Z,0
2019-01-30T03:17:03.357Z,0
2019-01-30T03:18:03.104Z,0
2019-01-30T03:19:03.690Z,0
2019-01-30T03:20:03.862Z,0
2019-01-30T03:21:02.920Z,0
2019-01-30T03:22:03.080Z,0
2019-01-30T03:23:03.098Z,0
2019-01-30T03:24:03.165Z,0
2019-01-30T03:25:03.169Z,1.1
2019-01-30T03:26:02.984Z,0
2019-01-30T03:27:02.890Z,2.5
2019-01-30T03:28:02.740Z,2.5
2019-01-30T03:29:03.546Z,1.1
2019-01-30T03:30:02.960Z,0
2019-01-30T03:31:19.878Z,0
2019-01-30T03:32:03.450Z,1.1
2019-01-30T03:33:03.247Z,1.1
2019-01-30T03:34:03.598Z,0
2019-01-30T03:35:03.548Z,1.1
2019-01-30T03:36:02.840Z,1.1
2019-01-30T03:37:03.208Z,1.1
2019-01-30T03:38:03.869Z,1.1
2019-01-30T03:39:03.856Z,1.1
2019-01-30T03:40:03.886Z,1.1
2019-01-30T03:41:03.754Z,1.1
2019-01-30T03:42:02.877Z,1.1
2019-01-30T03:43:02.863Z,1.1
2019-01-30T03:44:03.838Z,0
2019-01-30T03:45:03.053Z,1.1
2019-01-30T03:46:03.822Z,0
2019-01-30T03:47:03.518Z,0
2019-01-30T03:48:03.335Z,0
2019-01-30T03:49:03.197Z,0
2019-01-30T03:50:03.517Z,0
2019-01-30T03:51:03.519Z,0
2019-01-30T03:52:02.258Z,0
2019-01-30T03:53:03.208Z,0
2019-01-30T03:54:03.067Z,0
2019-01-30T03:55:03.375Z,0
2019-01-30T03:56:03.133Z,0
2019-01-30T03:57:03.656Z,0
2019-01-30T03:58:03.187Z,0
2019-01-30T03:59:03.646Z,0
2019-01-30T04:00:03.641Z,0
2019-01-30T04:01:03.646Z,0
2019-01-30T04:02:03.512Z,0
2019-01-30T04:03:02.991Z,0
2019-01-30T04:04:03.682Z,0
2019-01-30T04:05:04.107Z,0
2019-01-30T04:06:03.054Z,0
2019-01-30T04:07:03.169Z,0
2019-01-30T04:08:03.555Z,0
2019-01-30T04:09:03.445Z,1.1
2019-01-30T04:10:02.809Z,1.1
2019-01-30T04:11:03.264Z,0
2019-01-30T04:12:03.506Z,0
2019-01-30T04:13:02.766Z,0
2019-01-30T04:14:03.211Z,1.1
2019-01-30T04:15:04.088Z,0
2019-01-30T04:16:03.633Z,0
2019-01-30T04:17:03.597Z,0
2019-01-30T04:18:03.522Z,0
2019-01-30T04:19:02.885Z,0
2019-01-30T04:20:03.826Z,0
2019-01-30T04:21:03.695Z,0
2019-01-30T04:22:02.971Z,0
2019-01-30T04:23:03.660Z,0
2019-01-30T04:24:03.802Z,0
2019-01-30T04:25:03.637Z,0
2019-01-30T04:26:03.185Z,0
2019-01-30T04:27:03.487Z,0
2019-01-30T04:28:03.382Z,0
2019-01-30T04:29:03.171Z,0
2019-01-30T04:30:03.068Z,0
2019-01-30T04:31:03.613Z,0
2019-01-30T04:32:03.504Z,0
2019-01-30T04:33:03.591Z,0
2019-01-30T04:34:02.950Z,0
2019-01-30T04:35:03.260Z,0
2019-01-30T04:36:03.663Z,0
2019-01-30T04:37:03.195Z,0
2019-01-30T04:38:02.744Z,0
2019-01-30T04:39:03.555Z,0
2019-01-30T04:40:03.525Z,0
2019-01-30T04:41:03.012Z,0
2019-01-30T04:42:03.776Z,0
2019-01-30T04:43:03.461Z,0
2019-01-30T04:44:01.838Z,0
2019-01-30T04:45:03.241Z,0
2019-01-30T04:46:03.646Z,1.1
2019-01-30T04:47:02.961Z,1.1
2019-01-30T04:48:03.462Z,0
2019-01-30T04:49:03.503Z,1.1
2019-01-30T04:50:02.935Z,1.1
2019-01-30T04:51:02.858Z,0
2019-01-30T04:52:02.866Z,0
2019-01-30T04:53:03.450Z,0
2019-01-30T04:54:02.922Z,0
2019-01-30T04:55:03.035Z,0
2019-01-30T04:56:03.316Z,1.1
2019-01-30T04:57:03.128Z,1.1
2019-01-30T04:58:03.571Z,0
2019-01-30T04:59:02.709Z,0
2019-01-30T05:00:03.546Z,0
2019-01-30T05:01:02.615Z,1.1
2019-01-30T05:02:03.794Z,1.1
2019-01-30T05:03:03.482Z,1.1
2019-01-30T05:04:04.438Z,1.1
2019-01-30T05:05:03.222Z,1.1
2019-01-30T05:06:03.893Z,1.1
2019-01-30T05:07:03.135Z,1.1
2019-01-30T05:08:03.007Z,1.1
2019-01-30T05:09:03.549Z,0
2019-01-30T05:10:03.059Z,0
2019-01-30T05:11:03.588Z,0
2019-01-30T05:12:03.633Z,0
2019-01-30T05:13:03.136Z,0
2019-01-30T05:14:02.963Z,0
2019-01-30T05:15:03.423Z,0
2019-01-30T05:16:03.271Z,0
2019-01-30T05:17:03.186Z,1.1
2019-01-30T05:18:03.829Z,1.1
2019-01-30T05:19:03.799Z,0
2019-01-30T05:20:03.846Z,0
2019-01-30T05:21:03.722Z,0
2019-01-30T05:22:03.539Z,0
2019-01-30T05:23:03.147Z,0
2019-01-30T05:24:03.746Z,0
2019-01-30T05:25:03.678Z,0
2019-01-30T05:26:03.279Z,0
2019-01-30T05:27:03.723Z,0
2019-01-30T05:28:03.545Z,0
2019-01-30T05:29:03.748Z,0
2019-01-30T05:30:02.970Z,0
2019-01-30T05:31:03.209Z,0
2019-01-30T05:32:03.122Z,0
2019-01-30T05:33:03.558Z,0
2019-01-30T05:34:02.930Z,1.1
2019-01-30T05:35:03.309Z,0
2019-01-30T05:36:02.993Z,0
2019-01-30T05:37:03.596Z,0
2019-01-30T05:38:03.488Z,0
2019-01-30T05:39:03.720Z,0
2019-01-30T05:40:03.786Z,0
2019-01-30T05:41:03.394Z,0
2019-01-30T05:42:03.029Z,0
2019-01-30T05:43:03.779Z,0
2019-01-30T05:44:02.888Z,0
2019-01-30T05:45:03.016Z,0
2019-01-30T05:46:02.625Z,0
2019-01-30T05:47:03.410Z,0
2019-01-30T05:48:03.323Z,1.1
2019-01-30T05:49:03.497Z,0
2019-01-30T05:50:03.243Z,0
2019-01-30T05:51:03.275Z,0
2019-01-30T05:52:03.088Z,0
2019-01-30T05:53:03.292Z,0
2019-01-30T05:54:03.228Z,0
2019-01-30T05:55:03.785Z,0
2019-01-30T05:56:03.747Z,0
2019-01-30T05:57:03.307Z,0
2019-01-30T05:58:03.420Z,0
2019-01-30T05:59:03.490Z,0
2019-01-30T06:00:03.324Z,0
2019-01-30T06:01:02.837Z,0
2019-01-30T06:02:12.789Z,0
2019-01-30T06:03:02.623Z,0
2019-01-30T06:04:03.159Z,0
2019-01-30T06:05:02.999Z,0
2019-01-30T06:06:03.471Z,0
2019-01-30T06:07:03.566Z,0
2019-01-30T06:08:03.691Z,0
2019-01-30T06:09:03.686Z,0
2019-01-30T06:10:02.988Z,0
2019-01-30T06:11:02.967Z,0
2019-01-30T06:12:03.382Z,0
2019-01-30T06:13:02.637Z,0
2019-01-30T06:14:03.107Z,0
2019-01-30T06:15:03.327Z,1.1
2019-01-30T06:16:02.774Z,0
2019-01-30T06:17:03.030Z,0
2019-01-30T06:18:03.709Z,0
2019-01-30T06:19:03.194Z,0
2019-01-30T06:20:02.949Z,0
2019-01-30T06:21:04.029Z,0
2019-01-30T06:22:03.028Z,0
2019-01-30T06:23:03.229Z,0
2019-01-30T06:24:03.080Z,0
2019-01-30T06:25:03.191Z,0
2019-01-30T06:26:02.874Z,0
2019-01-30T06:27:03.307Z,0
2019-01-30T06:28:03.601Z,0
2019-01-30T06:29:03.839Z,0
2019-01-30T06:30:03.630Z,0
2019-01-30T06:31:03.101Z,0
2019-01-30T06:32:03.422Z,0
2019-01-30T06:33:03.483Z,0
2019-01-30T06:34:03.590Z,0
2019-01-30T06:35:02.837Z,0
2019-01-30T06:36:02.826Z,0
2019-01-30T06:37:03.018Z,0
2019-01-30T06:38:03.623Z,0
2019-01-30T06:39:02.891Z,0
2019-01-30T06:40:02.640Z,0
2019-01-30T06:41:03.354Z,0
2019-01-30T06:42:03.166Z,0
2019-01-30T06:43:04.104Z,0
2019-01-30T06:44:03.590Z,0
2019-01-30T06:45:03.504Z,0
2019-01-30T06:46:03.334Z,0
2019-01-30T06:47:02.996Z,0
2019-01-30T06:48:03.596Z,0
2019-01-30T06:49:02.929Z,0
2019-01-30T06:50:03.499Z,0
2019-01-30T06:51:03.076Z,0
2019-01-30T06:52:03.286Z,0
2019-01-30T06:53:03.564Z,0
2019-01-30T06:54:03.591Z,0
2019-01-30T06:55:03.035Z,0
2019-01-30T06:56:03.810Z,0
2019-01-30T06:57:02.805Z,0
2019-01-30T06:58:03.779Z,0
2019-01-30T06:59:03.064Z,0
2019-01-30T07:00:04.203Z,0
2019-01-30T07:01:02.864Z,0
2019-01-30T07:02:03.448Z,0
2019-01-30T07:03:02.905Z,0
2019-01-30T07:04:03.257Z,0
2019-01-30T07:05:02.952Z,0
2019-01-30T07:06:02.821Z,0
2019-01-30T07:07:02.946Z,0
2019-01-30T07:08:03.587Z,0
2019-01-30T07:09:03.461Z,0
2019-01-30T07:10:03.425Z,0
2019-01-30T07:11:11.249Z,0
2019-01-30T07:12:03.832Z,0
2019-01-30T07:13:03.766Z,0
2019-01-30T07:14:03.352Z,0
2019-01-30T07:15:03.471Z,0
2019-01-30T07:16:03.201Z,0
2019-01-30T07:17:03.070Z,0
2019-01-30T07:18:03.286Z,0
2019-01-30T07:19:03.581Z,0
2019-01-30T07:20:03.536Z,0
2019-01-30T07:21:02.821Z,0
2019-01-30T07:22:03.206Z,0
2019-01-30T07:23:03.734Z,0
2019-01-30T07:24:03.503Z,0
2019-01-30T07:25:03.717Z,0
2019-01-30T07:26:03.837Z,0
2019-01-30T07:27:03.639Z,0
2019-01-30T07:28:02.948Z,0
2019-01-30T07:29:03.213Z,0
2019-01-30T07:30:03.742Z,0
2019-01-30T07:31:03.179Z,0
2019-01-30T07:32:03.057Z,0
2019-01-30T07:33:03.832Z,0
2019-01-30T07:34:03.710Z,0
2019-01-30T07:35:03.826Z,0
2019-01-30T07:36:02.771Z,0
2019-01-30T07:37:03.093Z,0
2019-01-30T07:38:03.325Z,0
2019-01-30T07:39:03.372Z,0
2019-01-30T07:40:03.151Z,0
2019-01-30T07:41:03.439Z,0
2019-01-30T07:42:03.596Z,0
2019-01-30T07:43:03.204Z,0
2019-01-30T07:44:02.926Z,0
2019-01-30T07:45:03.018Z,0
2019-01-30T07:46:02.931Z,0
2019-01-30T07:47:03.629Z,0
2019-01-30T07:48:03.759Z,0
2019-01-30T07:49:03.019Z,0
2019-01-30T07:50:03.864Z,0
2019-01-30T07:51:03.717Z,0
2019-01-30T07:52:03.069Z,0
2019-01-30T07:53:03.039Z,0
2019-01-30T07:54:03.151Z,0
2019-01-30T07:55:03.532Z,0
2019-01-30T07:56:03.744Z,0
2019-01-30T07:57:03.201Z,0
2019-01-30T07:58:06.195Z,0
2019-01-30T07:59:03.295Z,1.1
2019-01-30T08:00:03.736Z,1.1
2019-01-30T08:01:02.726Z,1.1
2019-01-30T08:02:03.676Z,0
2019-01-30T08:03:03.208Z,0
2019-01-30T08:04:03.624Z,0
2019-01-30T08:05:03.928Z,0
2019-01-30T08:06:03.029Z,0
2019-01-30T08:07:03.606Z,0
2019-01-30T08:08:02.910Z,0
2019-01-30T08:09:03.805Z,0
2019-01-30T08:10:03.147Z,0
2019-01-30T08:11:03.650Z,0
2019-01-30T08:12:03.172Z,0
2019-01-30T08:13:03.108Z,0
2019-01-30T08:14:03.685Z,0
2019-01-30T08:15:03.929Z,0
2019-01-30T08:16:03.697Z,0
2019-01-30T08:17:03.305Z,0
2019-01-30T08:18:03.164Z,0
2019-01-30T08:19:03.042Z,0
2019-01-30T08:20:03.436Z,0
2019-01-30T08:21:03.750Z,0
2019-01-30T08:22:02.904Z,0
2019-01-30T08:23:03.988Z,0
2019-01-30T08:24:04.328Z,0
2019-01-30T08:25:04.021Z,0
2019-01-30T08:26:04.385Z,1.1
2019-01-30T08:27:04.499Z,0
2019-01-30T08:28:03.608Z,0
2019-01-30T08:29:02.920Z,0
2019-01-30T08:30:04.460Z,0
2019-01-30T08:31:04.393Z,0
2019-01-30T08:32:03.849Z,0
2019-01-30T08:33:06.765Z,1.1
2019-01-30T08:34:03.267Z,1.1
2019-01-30T08:35:03.478Z,1.1
2019-01-30T08:36:03.836Z,1.1
2019-01-30T08:37:02.930Z,1.1
2019-01-30T08:38:03.201Z,0
2019-01-30T08:39:02.942Z,1.1
2019-01-30T08:40:03.411Z,1.1
2019-01-30T08:41:03.536Z,1.1
2019-01-30T08:42:03.482Z,1.1
2019-01-30T08:43:03.757Z,0
2019-01-30T08:44:03.081Z,0
2019-01-30T08:45:03.247Z,1.1
2019-01-30T08:46:03.878Z,1.1
2019-01-30T08:47:03.399Z,1.1
2019-01-30T08:48:03.238Z,1.1
2019-01-30T08:49:03.168Z,0
2019-01-30T08:50:03.440Z,0
2019-01-30T08:51:03.013Z,0
2019-01-30T08:52:03.069Z,0
2019-01-30T08:53:03.837Z,0
2019-01-30T08:54:02.820Z,0
2019-01-30T08:55:03.149Z,0
2019-01-30T08:56:02.995Z,0
2019-01-30T08:57:03.252Z,0
2019-01-30T08:58:03.322Z,0
2019-01-30T08:59:06.284Z,0
2019-01-30T09:00:03.796Z,0
2019-01-30T09:01:03.041Z,0
2019-01-30T09:02:03.386Z,0
2019-01-30T09:03:03.078Z,0
2019-01-30T09:04:03.453Z,0
2019-01-30T09:05:03.718Z,0
2019-01-30T09:06:03.836Z,0
2019-01-30T09:07:02.963Z,0
2019-01-30T09:08:03.626Z,0
2019-01-30T09:09:03.460Z,0
2019-01-30T09:10:03.620Z,1.1
2019-01-30T09:11:03.669Z,0
2019-01-30T09:12:02.929Z,0
2019-01-30T09:13:03.326Z,0
2019-01-30T09:14:03.160Z,0
2019-01-30T09:15:03.457Z,0
2019-01-30T09:16:03.042Z,0
2019-01-30T09:17:08.947Z,0
2019-01-30T09:18:03.196Z,0
2019-01-30T09:19:03.780Z,0
2019-01-30T09:20:03.090Z,0
2019-01-30T09:21:03.359Z,0
2019-01-30T09:22:03.070Z,0
2019-01-30T09:23:03.535Z,0
2019-01-30T09:24:03.484Z,0
2019-01-30T09:25:03.323Z,0
2019-01-30T09:26:03.735Z,0
2019-01-30T09:27:02.870Z,0
2019-01-30T09:28:03.220Z,0
2019-01-30T09:29:03.333Z,0
2019-01-30T09:30:03.188Z,0
2019-01-30T09:31:03.279Z,0
2019-01-30T09:32:03.129Z,0
2019-01-30T09:33:03.524Z,0
2019-01-30T09:34:03.808Z,0
2019-01-30T09:35:03.906Z,0
2019-01-30T09:36:02.948Z,0
2019-01-30T09:37:02.870Z,0
2019-01-30T09:38:02.935Z,0
2019-01-30T09:39:03.080Z,0
2019-01-30T09:40:03.186Z,0
2019-01-30T09:41:03.653Z,0
2019-01-30T09:42:02.888Z,0
2019-01-30T09:43:03.514Z,0
2019-01-30T09:44:03.055Z,0
2019-01-30T09:45:03.363Z,0
2019-01-30T09:46:03.394Z,0
2019-01-30T09:47:02.852Z,0
2019-01-30T09:48:03.058Z,0
2019-01-30T09:49:03.372Z,0
2019-01-30T09:50:03.873Z,0
2019-01-30T09:51:03.733Z,0
2019-01-30T09:52:03.168Z,0
2019-01-30T09:53:03.108Z,0
2019-01-30T09:54:03.609Z,0
2019-01-30T09:55:03.323Z,0
2019-01-30T09:56:03.650Z,0
2019-01-30T09:57:03.100Z,0
2019-01-30T09:58:03.586Z,0
2019-01-30T09:59:03.566Z,0
2019-01-30T10:00:03.394Z,0
2019-01-30T10:01:03.267Z,0
2019-01-30T10:02:02.995Z,0
2019-01-30T10:03:02.938Z,0
2019-01-30T10:04:03.350Z,0
2019-01-30T10:05:02.952Z,0
2019-01-30T10:06:02.914Z,0
2019-01-30T10:07:03.632Z,0
2019-01-30T10:08:03.039Z,0
2019-01-30T10:09:03.176Z,0
2019-01-30T10:10:03.326Z,0
2019-01-30T10:11:03.520Z,0
2019-01-30T10:12:03.438Z,0
2019-01-30T10:13:03.229Z,0
2019-01-30T10:14:02.986Z,0
2019-01-30T10:15:02.806Z,0
2019-01-30T10:16:03.423Z,0
2019-01-30T10:17:02.728Z,0
2019-01-30T10:18:03.168Z,1.1
2019-01-30T10:19:03.086Z,0
2019-01-30T10:20:03.797Z,0
2019-01-30T10:21:02.902Z,0
2019-01-30T10:22:03.201Z,1.1
2019-01-30T10:23:03.686Z,1.1
2019-01-30T10:24:03.029Z,1.1
2019-01-30T10:25:02.908Z,1.1
2019-01-30T10:26:03.199Z,0
2019-01-30T10:27:03.007Z,0
2019-01-30T10:28:03.037Z,0
2019-01-30T10:29:02.770Z,0
2019-01-30T10:30:03.233Z,0
2019-01-30T10:31:03.010Z,0
2019-01-30T10:32:03.756Z,0
2019-01-30T10:33:03.845Z,0
2019-01-30T10:34:03.764Z,0
2019-01-30T10:35:02.973Z,0
2019-01-30T10:36:03.784Z,0
2019-01-30T10:37:04.029Z,0
2019-01-30T10:38:02.923Z,0
2019-01-30T10:39:04.127Z,0
2019-01-30T10:40:03.086Z,0
2019-01-30T10:41:03.056Z,0
2019-01-30T10:42:03.547Z,0
2019-01-30T10:43:02.922Z,1.1
2019-01-30T10:44:03.125Z,1.1
2019-01-30T10:45:03.604Z,1.1
2019-01-30T10:46:03.329Z,1.1
2019-01-30T10:47:03.093Z,1.1
2019-01-30T10:48:02.813Z,1.1
2019-01-30T10:49:03.704Z,1.1
2019-01-30T10:50:03.619Z,1.1
2019-01-30T10:51:03.374Z,1.1
2019-01-30T10:52:03.090Z,1.1
2019-01-30T10:53:03.600Z,1.1
2019-01-30T10:54:03.742Z,1.1
2019-01-30T10:55:03.016Z,1.1
2019-01-30T10:56:03.768Z,1.1
2019-01-30T10:57:03.187Z,1.1
2019-01-30T10:58:03.519Z,1.1
2019-01-30T10:59:03.536Z,1.1
2019-01-30T11:00:03.197Z,1.1
2019-01-30T11:01:04.151Z,1.1
2019-01-30T11:02:03.551Z,1.1
2019-01-30T11:03:03.240Z,1.1
2019-01-30T11:04:03.158Z,1.1
2019-01-30T11:05:02.841Z,1.1
2019-01-30T11:06:03.634Z,1.1
2019-01-30T11:07:03.201Z,1.1
2019-01-30T11:08:03.793Z,1.1
2019-01-30T11:09:03.151Z,0
2019-01-30T11:10:02.907Z,0
2019-01-30T11:11:08.566Z,3.6
2019-01-30T11:12:02.886Z,7.2
2019-01-30T11:13:03.467Z,7.2
2019-01-30T11:14:03.514Z,7.2
2019-01-30T11:15:03.558Z,8.6
2019-01-30T11:16:03.027Z,8.6
2019-01-30T11:17:03.034Z,7.2
2019-01-30T11:18:03.625Z,6.1
2019-01-30T11:19:03.483Z,6.1
2019-01-30T11:20:03.862Z,6.1
2019-01-30T11:21:06.382Z,1.1
2019-01-30T11:22:02.892Z,2.5
2019-01-30T11:23:03.262Z,0
2019-01-30T11:24:03.510Z,2.5
2019-01-30T11:25:05.847Z,2.5
2019-01-30T11:26:03.474Z,2.5
2019-01-30T11:27:02.913Z,2.5
2019-01-30T11:28:03.934Z,1.1
2019-01-30T11:29:02.868Z,1.1
2019-01-30T11:30:03.153Z,1.1
2019-01-30T11:31:03.740Z,1.1
2019-01-30T11:32:03.301Z,2.5
2019-01-30T11:33:03.678Z,3.6
2019-01-30T11:34:08.253Z,3.6
2019-01-30T11:35:02.984Z,3.6
2019-01-30T11:36:02.840Z,2.5
2019-01-30T11:37:03.830Z,2.5
2019-01-30T11:38:03.091Z,3.6
2019-01-30T11:39:03.445Z,3.6
2019-01-30T11:40:03.853Z,3.6
2019-01-30T11:41:03.580Z,5
2019-01-30T11:42:03.591Z,3.6
2019-01-30T11:43:03.262Z,3.6
2019-01-30T11:44:03.845Z,3.6
2019-01-30T11:45:03.207Z,2.5
2019-01-30T11:46:03.382Z,2.5
2019-01-30T11:47:03.537Z,2.5
2019-01-30T11:48:03.263Z,3.6
2019-01-30T11:49:03.102Z,3.6
2019-01-30T11:50:03.481Z,2.5
2019-01-30T11:51:03.317Z,2.5
2019-01-30T11:52:02.942Z,2.5
2019-01-30T11:53:03.409Z,2.5
2019-01-30T11:54:03.624Z,3.6
2019-01-30T11:55:03.421Z,3.6
2019-01-30T11:56:03.435Z,2.5
2019-01-30T11:57:03.380Z,3.6
2019-01-30T11:58:03.018Z,3.6
2019-01-30T11:59:02.777Z,2.5
2019-01-30T12:00:03.430Z,3.6
2019-01-30T12:01:03.882Z,3.6
2019-01-30T12:02:02.788Z,5
2019-01-30T12:03:03.199Z,5
2019-01-30T12:04:02.660Z,5
2019-01-30T12:05:03.365Z,3.6
2019-01-30T12:06:03.259Z,2.5
2019-01-30T12:07:03.160Z,2.5
2019-01-30T12:08:03.019Z,2.5
2019-01-30T12:09:03.030Z,2.5
2019-01-30T12:10:03.196Z,3.6
2019-01-30T12:11:03.169Z,2.5
2019-01-30T12:12:03.270Z,2.5
2019-01-30T12:13:03.159Z,2.5
2019-01-30T12:14:02.999Z,2.5
2019-01-30T12:15:03.330Z,2.5
2019-01-30T12:16:03.158Z,2.5
2019-01-30T12:17:03.494Z,1.1
2019-01-30T12:18:02.854Z,0
2019-01-30T12:19:03.356Z,1.1
2019-01-30T12:20:03.043Z,2.5
2019-01-30T12:21:02.825Z,2.5
2019-01-30T12:22:03.122Z,2.5
2019-01-30T12:23:03.419Z,1.1
2019-01-30T12:24:02.867Z,0
2019-01-30T12:25:03.342Z,0
2019-01-30T12:26:03.159Z,0
2019-01-30T12:27:03.353Z,0
2019-01-30T12:28:02.974Z,0
2019-01-30T12:29:03.514Z,0
2019-01-30T12:30:03.823Z,1.1
2019-01-30T12:31:03.160Z,0
2019-01-30T12:32:02.721Z,0
2019-01-30T12:33:02.928Z,0
2019-01-30T12:34:03.148Z,0
2019-01-30T12:35:03.744Z,1.1
2019-01-30T12:36:03.363Z,1.1
2019-01-30T12:37:03.156Z,1.1
2019-01-30T12:38:02.848Z,1.1
2019-01-30T12:39:03.096Z,0
2019-01-30T12:40:03.616Z,1.1
2019-01-30T12:41:03.369Z,2.5
2019-01-30T12:42:03.436Z,1.1
2019-01-30T12:43:03.331Z,0
2019-01-30T12:44:03.603Z,0
2019-01-30T12:45:03.478Z,0
2019-01-30T12:46:02.939Z,0
2019-01-30T12:47:03.655Z,0
2019-01-30T12:48:03.312Z,1.1
2019-01-30T12:49:03.508Z,0
2019-01-30T12:50:03.546Z,0
2019-01-30T12:51:03.314Z,0
2019-01-30T12:52:03.145Z,2.5
2019-01-30T12:53:03.361Z,2.5
2019-01-30T12:54:03.680Z,2.5
2019-01-30T12:55:03.301Z,2.5
2019-01-30T12:56:02.984Z,3.6
2019-01-30T12:57:03.135Z,2.5
2019-01-30T12:58:02.958Z,1.1
2019-01-30T12:59:02.991Z,0
2019-01-30T13:00:03.691Z,0
2019-01-30T13:01:03.289Z,1.1
2019-01-30T13:02:03.547Z,1.1
2019-01-30T13:03:04.042Z,1.1
2019-01-30T13:04:03.401Z,1.1
2019-01-30T13:05:03.899Z,1.1
2019-01-30T13:06:03.256Z,1.1
2019-01-30T13:07:03.600Z,1.1
2019-01-30T13:08:03.450Z,1.1
2019-01-30T13:09:03.682Z,1.1
2019-01-30T13:10:03.383Z,0
2019-01-30T13:11:03.428Z,0
2019-01-30T13:12:03.205Z,0
2019-01-30T13:13:02.936Z,0
2019-01-30T13:14:02.929Z,0
2019-01-30T13:15:03.378Z,1.1
2019-01-30T13:16:03.176Z,0
2019-01-30T13:17:02.944Z,0
2019-01-30T13:18:18.907Z,0
2019-01-30T13:19:03.807Z,3.6
2019-01-30T13:20:03.092Z,2.5
2019-01-30T13:21:03.107Z,2.5
2019-01-30T13:22:02.984Z,3.6
2019-01-30T13:23:03.666Z,0
2019-01-30T13:24:03.456Z,0
2019-01-30T13:25:03.628Z,0
2019-01-30T13:26:03.209Z,1.1
2019-01-30T13:27:03.309Z,1.1
2019-01-30T13:28:03.697Z,0
2019-01-30T13:29:02.995Z,0
2019-01-30T13:30:03.672Z,1.1
2019-01-30T13:31:03.331Z,0
2019-01-30T13:32:02.798Z,0
2019-01-30T13:33:02.888Z,2.5
2019-01-30T13:34:03.733Z,1.1
2019-01-30T13:35:03.041Z,1.1
2019-01-30T13:36:03.157Z,0
2019-01-30T13:37:02.823Z,1.1
2019-01-30T13:38:03.540Z,0
2019-01-30T13:39:03.464Z,0
2019-01-30T13:40:03.665Z,1.1
2019-01-30T13:41:03.596Z,1.1
2019-01-30T13:42:03.133Z,1.1
2019-01-30T13:43:03.802Z,2.5
2019-01-30T13:44:03.129Z,1.1
2019-01-30T13:45:03.983Z,0
2019-01-30T13:46:06.029Z,1.1
2019-01-30T13:47:02.881Z,0
2019-01-30T13:48:03.795Z,0
2019-01-30T13:49:03.425Z,0
2019-01-30T13:50:03.535Z,0
2019-01-30T13:51:02.850Z,0
2019-01-30T13:52:03.465Z,0
2019-01-30T13:53:03.314Z,0
2019-01-30T13:54:02.872Z,0
2019-01-30T13:55:03.150Z,1.1
2019-01-30T13:56:03.294Z,1.1
2019-01-30T13:57:03.488Z,1.1
2019-01-30T13:58:03.580Z,1.1
2019-01-30T13:59:02.909Z,1.1
2019-01-30T14:00:03.543Z,1.1
2019-01-30T14:01:03.290Z,0
2019-01-30T14:02:03.222Z,1.1
2019-01-30T14:03:03.249Z,1.1
2019-01-30T14:04:02.750Z,0
2019-01-30T14:05:03.930Z,0
2019-01-30T14:06:03.452Z,1.1
2019-01-30T14:07:03.678Z,1.1
2019-01-30T14:08:03.088Z,1.1
2019-01-30T14:09:03.165Z,0
2019-01-30T14:10:03.834Z,0
2019-01-30T14:11:03.570Z,0
2019-01-30T14:12:02.916Z,0
2019-01-30T14:13:03.798Z,0
2019-01-30T14:14:03.238Z,0
2019-01-30T14:15:03.534Z,0
2019-01-30T14:16:03.219Z,1.1
2019-01-30T14:17:01.981Z,0
2019-01-30T14:18:04.014Z,2.5
2019-01-30T14:19:03.496Z,2.5
2019-01-30T14:20:03.497Z,1.1
2019-01-30T14:21:03.680Z,1.1